Time;durP1;ratioP1;P1;durP2;ratioP2;P2;SDS_P1;SDS_P2;PMS_P1;PMS_P2;Temp;Humidity;BMP_temperature;BMP_pressure;BME280_temperature;BME280_humidity;BME280_pressure;Samples;Min_cycle;Max_cycle;Signal;HPM_P1;HPM_P2
2023/12/20 00:01:42;;;;;;;3.83;2.67;;;;;;;;;;5004905;28;20215;-28
2023/12/20 00:04:11;;;;;;;3.20;2.47;;;;;;;;;;5005958;28;20227;-26
2023/12/20 00:06:38;;;;;;;6.57;2.80;;;;;;;;;;4997340;28;20521;-28
2023/12/20 00:09:05;;;;;;;2.83;2.10;;;;;;;;;;5022889;28;20203;-27
2023/12/20 00:11:32;;;;;;;2.37;1.90;;;;;;;;;;5025717;28;20249;-25
2023/12/20 00:13:59;;;;;;;2.80;2.33;;;;;;;;;;5019111;28;20219;-26
2023/12/20 00:16:26;;;;;;;2.57;2.10;;;;;;;;;;4998906;28;20374;-28
2023/12/20 00:18:54;;;;;;;3.80;2.00;;;;;;;;;;5019706;28;20213;-28
2023/12/20 00:21:22;;;;;;;3.40;1.90;;;;;;;;;;5002847;28;20204;-26
2023/12/20 00:23:49;;;;;;;1.67;1.57;;;;;;;;;;5020655;28;20204;-28
2023/12/20 00:26:16;;;;;;;2.10;1.70;;;;;;;;;;5011862;28;20209;-27
2023/12/20 00:28:43;;;;;;;1.93;1.60;;;;;;;;;;5019605;28;20206;-24
2023/12/20 00:31:11;;;;;;;2.60;2.03;;;;;;;;;;5014627;28;20237;-30
2023/12/20 00:33:39;;;;;;;2.87;1.73;;;;;;;;;;5007831;28;20215;-28
2023/12/20 00:36:07;;;;;;;3.13;1.87;;;;;;;;;;5008030;28;20207;-26
2023/12/20 00:38:35;;;;;;;3.63;1.20;;;;;;;;;;5010895;28;20203;-27
2023/12/20 00:41:03;;;;;;;1.70;1.60;;;;;;;;;;5026351;28;20204;-27
2023/12/20 00:43:30;;;;;;;2.73;1.53;;;;;;;;;;5019034;28;20210;-28
2023/12/20 00:45:59;;;;;;;1.20;1.10;;;;;;;;;;5011302;28;20234;-28
2023/12/20 00:48:28;;;;;;;1.50;1.40;;;;;;;;;;5008668;28;20223;-27
2023/12/20 00:50:55;;;;;;;1.60;1.50;;;;;;;;;;4990471;28;20245;-27
2023/12/20 00:53:22;;;;;;;1.70;1.50;;;;;;;;;;5003789;28;20203;-27
2023/12/20 00:55:51;;;;;;;1.90;1.50;;;;;;;;;;5029867;28;20234;-28
2023/12/20 00:58:18;;;;;;;4.43;1.37;;;;;;;;;;5024501;28;20207;-27
2023/12/20 01:00:45;;;;;;;1.73;1.50;;;;;;;;;;5013609;28;20204;-28
2023/12/20 01:03:13;;;;;;;2.00;1.63;;;;;;;;;;5000650;28;20230;-27
2023/12/20 01:05:40;;;;;;;2.33;1.80;;;;;;;;;;5006816;28;20227;-26
2023/12/20 01:08:08;;;;;;;3.07;2.10;;;;;;;;;;5007304;28;20204;-28
2023/12/20 01:10:35;;;;;;;2.80;2.50;;;;;;;;;;5022669;28;20203;-28
2023/12/20 01:13:03;;;;;;;2.73;1.97;;;;;;;;;;5021373;28;20252;-27
2023/12/20 01:15:30;;;;;;;1.63;1.53;;;;;;;;;;5013564;28;20234;-27
2023/12/20 01:17:59;;;;;;;2.47;1.53;;;;;;;;;;5006288;28;20200;-25
2023/12/20 01:20:26;;;;;;;1.40;1.30;;;;;;;;;;5013665;28;20210;-25
2023/12/20 01:22:53;;;;;;;2.80;1.57;;;;;;;;;;5011406;28;20286;-28
2023/12/20 01:25:20;;;;;;;2.13;1.37;;;;;;;;;;5022843;28;20585;-26
2023/12/20 01:27:48;;;;;;;2.43;1.20;;;;;;;;;;5024472;28;20302;-28
2023/12/20 01:30:16;;;;;;;1.07;0.97;;;;;;;;;;5009670;28;20211;-26
2023/12/20 01:32:43;;;;;;;3.20;1.27;;;;;;;;;;5015344;28;20238;-27
2023/12/20 01:35:12;;;;;;;1.63;1.43;;;;;;;;;;5020849;28;20245;-30
2023/12/20 01:37:39;;;;;;;2.43;1.40;;;;;;;;;;5005874;28;20220;-25
2023/12/20 01:40:07;;;;;;;1.37;1.23;;;;;;;;;;5021515;28;20214;-26
2023/12/20 01:42:35;;;;;;;1.20;1.10;;;;;;;;;;5022657;28;20295;-27
2023/12/20 01:45:01;;;;;;;4.37;1.20;;;;;;;;;;5008567;28;20255;-25
2023/12/20 01:47:29;;;;;;;1.93;1.17;;;;;;;;;;5019067;28;20206;-24
2023/12/20 01:49:57;;;;;;;3.13;1.50;;;;;;;;;;5021119;28;20203;-30
2023/12/20 01:52:25;;;;;;;1.43;1.33;;;;;;;;;;5004391;28;20223;-26
2023/12/20 01:54:54;;;;;;;1.30;1.20;;;;;;;;;;5013600;28;20239;-26
2023/12/20 01:57:21;;;;;;;0.80;0.57;;;;;;;;;;5014643;28;20254;-28
2023/12/20 01:59:48;;;;;;;1.30;1.10;;;;;;;;;;5011290;28;20215;-28
2023/12/20 02:02:16;;;;;;;1.13;1.03;;;;;;;;;;5007971;28;20225;-32
2023/12/20 02:04:45;;;;;;;2.00;1.60;;;;;;;;;;5027036;28;20226;-26
2023/12/20 02:07:13;;;;;;;1.63;1.33;;;;;;;;;;5006597;28;20607;-26
2023/12/20 02:09:40;;;;;;;3.30;1.50;;;;;;;;;;5018122;28;20211;-28
2023/12/20 02:12:08;;;;;;;1.80;1.60;;;;;;;;;;5012669;28;20223;-25
2023/12/20 02:14:35;;;;;;;3.77;1.60;;;;;;;;;;5018461;28;20241;-27
2023/12/20 02:17:02;;;;;;;2.03;1.70;;;;;;;;;;5000617;28;20226;-31
2023/12/20 02:19:29;;;;;;;1.63;1.23;;;;;;;;;;5015827;28;20199;-26
2023/12/20 02:22:08;;;;;;;1.00;1.00;;;;;;;;;;5002336;28;20212;-29
2023/12/20 02:24:35;;;;;;;0.80;0.80;;;;;;;;;;5014679;28;20315;-30
2023/12/20 02:27:02;;;;;;;2.00;1.50;;;;;;;;;;5011296;28;20302;-26
2023/12/20 02:29:29;;;;;;;1.47;1.27;;;;;;;;;;5025885;28;20213;-26
2023/12/20 02:31:56;;;;;;;2.10;1.13;;;;;;;;;;5008875;28;20238;-27
2023/12/20 02:34:23;;;;;;;1.60;1.50;;;;;;;;;;5010217;28;20233;-26
2023/12/20 02:36:50;;;;;;;1.90;1.43;;;;;;;;;;5005690;28;20208;-28
2023/12/20 02:39:19;;;;;;;1.63;1.20;;;;;;;;;;5015339;28;20207;-28
2023/12/20 02:41:46;;;;;;;4.53;2.90;;;;;;;;;;5026706;28;20202;-30
2023/12/20 02:44:13;;;;;;;2.73;2.00;;;;;;;;;;5011338;28;20232;-26
2023/12/20 02:46:41;;;;;;;2.73;1.87;;;;;;;;;;5009082;28;20207;-26
2023/12/20 02:49:08;;;;;;;6.43;1.30;;;;;;;;;;5014585;28;20205;-28
2023/12/20 02:51:38;;;;;;;1.57;1.20;;;;;;;;;;5007909;28;20729;-29
2023/12/20 02:54:05;;;;;;;4.00;1.87;;;;;;;;;;5006306;28;20254;-26
2023/12/20 02:56:33;;;;;;;3.17;2.87;;;;;;;;;;5009706;28;20226;-26
2023/12/20 02:59:00;;;;;;;1.93;1.83;;;;;;;;;;5017877;28;20226;-26
2023/12/20 03:01:28;;;;;;;1.60;1.50;;;;;;;;;;5004020;28;20207;-26
2023/12/20 03:03:55;;;;;;;1.40;1.20;;;;;;;;;;5003235;28;20233;-27
2023/12/20 03:06:22;;;;;;;1.20;1.10;;;;;;;;;;5002433;28;20219;-26
2023/12/20 03:08:49;;;;;;;1.47;0.87;;;;;;;;;;5012787;28;20657;-28
2023/12/20 03:11:16;;;;;;;0.90;0.90;;;;;;;;;;5015267;28;20210;-26
2023/12/20 03:13:44;;;;;;;1.20;0.70;;;;;;;;;;5016628;28;20214;-26
2023/12/20 03:16:12;;;;;;;1.60;0.80;;;;;;;;;;5002807;28;20213;-28
2023/12/20 03:18:39;;;;;;;0.60;0.60;;;;;;;;;;5009968;28;20211;-30
2023/12/20 03:21:06;;;;;;;0.70;0.70;;;;;;;;;;5005918;28;20203;-27
2023/12/20 03:23:34;;;;;;;0.60;0.60;;;;;;;;;;5009463;28;20211;-26
2023/12/20 03:26:01;;;;;;;0.40;0.40;;;;;;;;;;5015119;28;20206;-27
2023/12/20 03:28:28;;;;;;;0.60;0.60;;;;;;;;;;5017823;28;20204;-26
2023/12/20 03:31:04;;;;;;;0.80;0.80;;;;;;;;;;5009825;28;20218;-26
2023/12/20 03:33:31;;;;;;;1.20;0.80;;;;;;;;;;5019651;28;20225;-27
2023/12/20 03:35:58;;;;;;;0.97;0.70;;;;;;;;;;5009745;28;21304;-27
2023/12/20 03:38:25;;;;;;;1.63;0.87;;;;;;;;;;5007715;28;20219;-28
2023/12/20 03:40:52;;;;;;;0.70;0.70;;;;;;;;;;5028516;28;20237;-30
2023/12/20 03:43:19;;;;;;;1.17;1.07;;;;;;;;;;5028321;28;20206;-29
2023/12/20 03:45:47;;;;;;;1.43;1.30;;;;;;;;;;5008865;28;20231;-27
2023/12/20 03:48:15;;;;;;;0.87;0.87;;;;;;;;;;5014810;28;20219;-27
2023/12/20 03:50:42;;;;;;;1.20;1.10;;;;;;;;;;5004888;28;20228;-27
2023/12/20 03:53:10;;;;;;;5.13;1.10;;;;;;;;;;5004833;28;20227;-28
2023/12/20 03:55:37;;;;;;;1.03;1.03;;;;;;;;;;5013069;28;20231;-29
2023/12/20 03:58:04;;;;;;;0.93;0.93;;;;;;;;;;5017526;28;20211;-27
2023/12/20 04:00:31;;;;;;;1.20;1.10;;;;;;;;;;5009126;28;20212;-28
2023/12/20 04:02:58;;;;;;;1.77;1.00;;;;;;;;;;5007889;28;20214;-26
2023/12/20 04:05:27;;;;;;;1.40;1.10;;;;;;;;;;5009695;28;20227;-28
2023/12/20 04:07:54;;;;;;;1.00;1.00;;;;;;;;;;5001591;28;20212;-26
2023/12/20 04:10:21;;;;;;;1.20;1.10;;;;;;;;;;5023035;28;20215;-27
2023/12/20 04:12:48;;;;;;;1.10;1.10;;;;;;;;;;5008839;28;20313;-28
2023/12/20 04:15:15;;;;;;;1.37;1.27;;;;;;;;;;5017900;28;20222;-26
2023/12/20 04:17:43;;;;;;;1.83;1.13;;;;;;;;;;4995767;28;20219;-27
2023/12/20 04:20:11;;;;;;;0.93;0.70;;;;;;;;;;5001232;28;20665;-26
2023/12/20 04:22:39;;;;;;;0.63;0.63;;;;;;;;;;5011247;28;20207;-28
2023/12/20 04:25:07;;;;;;;0.70;0.70;;;;;;;;;;5007358;28;20263;-27
2023/12/20 04:27:34;;;;;;;1.67;0.80;;;;;;;;;;5007743;28;20665;-25
2023/12/20 04:30:01;;;;;;;0.70;0.70;;;;;;;;;;5007740;28;20218;-26
2023/12/20 04:32:28;;;;;;;0.60;0.60;;;;;;;;;;5012541;28;20238;-26
2023/12/20 04:34:55;;;;;;;0.50;0.50;;;;;;;;;;5018775;28;20233;-27
2023/12/20 04:37:22;;;;;;;0.50;0.50;;;;;;;;;;4998131;28;20229;-28
2023/12/20 04:39:50;;;;;;;0.30;0.30;;;;;;;;;;5017234;28;20214;-27
2023/12/20 04:42:23;;;;;;;0.60;0.60;;;;;;;;;;5018740;28;20214;-26
2023/12/20 04:44:51;;;;;;;0.50;0.50;;;;;;;;;;5003115;28;20234;-29
2023/12/20 04:47:18;;;;;;;0.63;0.63;;;;;;;;;;5014476;28;20215;-27
2023/12/20 04:49:45;;;;;;;0.40;0.40;;;;;;;;;;5022746;28;20217;-27
2023/12/20 04:52:12;;;;;;;0.50;0.50;;;;;;;;;;5003412;28;20234;-27
2023/12/20 04:54:39;;;;;;;0.50;0.50;;;;;;;;;;5015682;28;20583;-27
2023/12/20 04:57:07;;;;;;;0.63;0.63;;;;;;;;;;5019358;28;20203;-27
2023/12/20 04:59:34;;;;;;;0.60;0.60;;;;;;;;;;5011902;28;20219;-28
2023/12/20 05:02:01;;;;;;;0.50;0.50;;;;;;;;;;5003246;28;20211;-28
2023/12/20 05:04:28;;;;;;;1.67;0.60;;;;;;;;;;5017901;28;20260;-26
2023/12/20 05:06:55;;;;;;;0.50;0.50;;;;;;;;;;5002367;28;20216;-26
2023/12/20 05:09:22;;;;;;;1.10;0.60;;;;;;;;;;5014380;28;20214;-29
2023/12/20 05:11:49;;;;;;;0.87;0.63;;;;;;;;;;5022078;28;20206;-26
2023/12/20 05:14:18;;;;;;;2.97;0.60;;;;;;;;;;4999396;28;20322;-28
2023/12/20 05:16:45;;;;;;;0.60;0.60;;;;;;;;;;5017005;28;20237;-27
2023/12/20 05:19:12;;;;;;;0.60;0.60;;;;;;;;;;5016620;28;20213;-30
2023/12/20 05:21:39;;;;;;;0.77;0.77;;;;;;;;;;5004817;28;20215;-25
2023/12/20 05:24:06;;;;;;;1.00;0.67;;;;;;;;;;5011229;28;20920;-28
2023/12/20 05:26:33;;;;;;;0.60;0.60;;;;;;;;;;5010702;28;20204;-26
2023/12/20 05:29:01;;;;;;;1.03;0.50;;;;;;;;;;5001148;28;20303;-26
2023/12/20 05:31:29;;;;;;;1.03;0.50;;;;;;;;;;5018480;28;20214;-26
2023/12/20 05:33:56;;;;;;;0.50;0.50;;;;;;;;;;5018622;28;20231;-27
2023/12/20 05:36:23;;;;;;;0.70;0.70;;;;;;;;;;5006680;28;20575;-26
2023/12/20 05:38:50;;;;;;;2.57;0.63;;;;;;;;;;5005234;28;20207;-28
2023/12/20 05:41:17;;;;;;;0.60;0.60;;;;;;;;;;5019147;28;20207;-28
2023/12/20 05:43:45;;;;;;;0.93;0.73;;;;;;;;;;5004374;28;20216;-28
2023/12/20 05:46:12;;;;;;;0.87;0.40;;;;;;;;;;5012895;28;20203;-26
2023/12/20 05:48:40;;;;;;;0.57;0.57;;;;;;;;;;5021026;28;20207;-29
2023/12/20 05:51:07;;;;;;;1.03;0.80;;;;;;;;;;5012653;28;20211;-29
2023/12/20 05:53:35;;;;;;;0.53;0.50;;;;;;;;;;5011034;28;20223;-25
2023/12/20 05:56:02;;;;;;;0.60;0.60;;;;;;;;;;5012723;28;20650;-25
2023/12/20 05:58:29;;;;;;;0.50;0.50;;;;;;;;;;5010872;28;20207;-25
2023/12/20 06:00:56;;;;;;;0.43;0.43;;;;;;;;;;5005462;28;20208;-26
2023/12/20 06:03:23;;;;;;;0.57;0.40;;;;;;;;;;5005334;28;20212;-28
2023/12/20 06:05:52;;;;;;;1.47;0.80;;;;;;;;;;5000729;28;20270;-28
2023/12/20 06:08:19;;;;;;;0.60;0.60;;;;;;;;;;5006760;28;20203;-28
2023/12/20 06:10:46;;;;;;;0.50;0.50;;;;;;;;;;5015070;28;20218;-28
2023/12/20 06:13:13;;;;;;;2.57;0.80;;;;;;;;;;5021087;28;20242;-27
2023/12/20 06:15:41;;;;;;;3.03;0.60;;;;;;;;;;5009695;28;20263;-28
2023/12/20 06:18:08;;;;;;;1.37;0.57;;;;;;;;;;4996907;28;20250;-28
2023/12/20 06:20:35;;;;;;;0.60;0.60;;;;;;;;;;5006343;28;20207;-28
2023/12/20 06:23:03;;;;;;;1.03;0.60;;;;;;;;;;5003175;28;20206;-28
2023/12/20 06:25:30;;;;;;;1.80;0.70;;;;;;;;;;5015892;28;20234;-27
2023/12/20 06:27:57;;;;;;;1.07;0.90;;;;;;;;;;5013701;28;20226;-26
2023/12/20 06:30:25;;;;;;;0.60;0.60;;;;;;;;;;5010691;28;20207;-26
2023/12/20 06:32:52;;;;;;;0.50;0.50;;;;;;;;;;5002997;28;20237;-31
2023/12/20 06:35:19;;;;;;;0.40;0.40;;;;;;;;;;5013791;28;20310;-28
2023/12/20 06:37:46;;;;;;;0.47;0.40;;;;;;;;;;5006488;28;20211;-29
2023/12/20 06:40:15;;;;;;;0.30;0.30;;;;;;;;;;5018164;28;20211;-28
2023/12/20 06:42:43;;;;;;;0.60;0.60;;;;;;;;;;5018858;28;20207;-27
2023/12/20 06:45:10;;;;;;;1.20;0.70;;;;;;;;;;5004319;28;20227;-27
2023/12/20 06:47:37;;;;;;;4.33;0.60;;;;;;;;;;5018481;28;20210;-26
2023/12/20 06:50:04;;;;;;;2.77;0.70;;;;;;;;;;5023018;28;20206;-29
2023/12/20 06:52:31;;;;;;;2.20;0.80;;;;;;;;;;4995362;28;20224;-28
2023/12/20 06:54:58;;;;;;;1.47;0.60;;;;;;;;;;5016641;28;20231;-28
2023/12/20 06:57:27;;;;;;;0.47;0.47;;;;;;;;;;5014848;28;20215;-28
2023/12/20 06:59:54;;;;;;;0.80;0.60;;;;;;;;;;5003583;28;20204;-29
2023/12/20 07:02:22;;;;;;;0.50;0.50;;;;;;;;;;5002506;28;20211;-28
2023/12/20 07:04:49;;;;;;;0.47;0.40;;;;;;;;;;5010038;28;20230;-30
2023/12/20 07:07:16;;;;;;;0.47;0.47;;;;;;;;;;4994627;28;20214;-28
2023/12/20 07:09:43;;;;;;;0.60;0.60;;;;;;;;;;5013548;28;20211;-26
2023/12/20 07:12:10;;;;;;;0.80;0.80;;;;;;;;;;5017183;28;20213;-28
2023/12/20 07:14:39;;;;;;;0.43;0.43;;;;;;;;;;5001077;28;20231;-26
2023/12/20 07:17:11;;;;;;;0.70;0.70;;;;;;;;;;5003697;28;20207;-26
2023/12/20 07:19:38;;;;;;;0.60;0.60;;;;;;;;;;5017913;28;20392;-28
2023/12/20 07:22:05;;;;;;;0.70;0.70;;;;;;;;;;4994420;28;20212;-25
2023/12/20 07:24:32;;;;;;;2.13;0.80;;;;;;;;;;5016140;28;20222;-28
2023/12/20 07:26:59;;;;;;;0.70;0.70;;;;;;;;;;5011713;28;20199;-28
2023/12/20 07:29:26;;;;;;;2.00;0.87;;;;;;;;;;5002378;28;20200;-30
2023/12/20 07:31:55;;;;;;;0.80;0.80;;;;;;;;;;4999624;28;20215;-27
2023/12/20 07:34:23;;;;;;;1.27;0.80;;;;;;;;;;5009181;28;20231;-26
2023/12/20 07:36:50;;;;;;;0.53;0.53;;;;;;;;;;4992211;28;20280;-28
2023/12/20 07:39:18;;;;;;;0.60;0.60;;;;;;;;;;5004527;28;20203;-27
2023/12/20 07:41:45;;;;;;;0.90;0.70;;;;;;;;;;5028895;28;20293;-29
2023/12/20 07:44:12;;;;;;;0.70;0.70;;;;;;;;;;5017148;28;20231;-27
2023/12/20 07:46:39;;;;;;;0.50;0.50;;;;;;;;;;5004889;28;20211;-27
2023/12/20 07:49:08;;;;;;;1.13;0.70;;;;;;;;;;5022183;28;20243;-26
2023/12/20 07:51:36;;;;;;;0.90;0.90;;;;;;;;;;5017748;28;20303;-29
2023/12/20 07:54:04;;;;;;;1.07;0.77;;;;;;;;;;5021619;28;20226;-27
2023/12/20 07:56:31;;;;;;;2.00;0.70;;;;;;;;;;5025373;28;20202;-28
2023/12/20 07:58:58;;;;;;;1.53;0.70;;;;;;;;;;5010560;28;20669;-27
2023/12/20 08:01:25;;;;;;;1.33;1.00;;;;;;;;;;5011518;28;20207;-26
2023/12/20 08:03:52;;;;;;;1.20;1.20;;;;;;;;;;5020039;28;20199;-27
2023/12/20 08:06:20;;;;;;;0.93;0.77;;;;;;;;;;5000690;28;20203;-26
2023/12/20 08:08:48;;;;;;;1.17;0.70;;;;;;;;;;5005419;28;20211;-27
2023/12/20 08:11:15;;;;;;;0.87;0.87;;;;;;;;;;5018484;28;20226;-30
2023/12/20 08:13:42;;;;;;;1.13;0.90;;;;;;;;;;5015390;28;20224;-30
2023/12/20 08:16:11;;;;;;;3.37;1.10;;;;;;;;;;5001349;28;20659;-28
2023/12/20 08:18:38;;;;;;;1.43;0.87;;;;;;;;;;5011869;28;20207;-25
2023/12/20 08:21:07;;;;;;;1.07;1.00;;;;;;;;;;5008443;28;20211;-26
2023/12/20 08:23:34;;;;;;;1.63;1.30;;;;;;;;;;5002293;28;20199;-25
2023/12/20 08:26:06;;;;;;;2.57;1.50;;;;;;;;;;5014874;28;20211;-26
2023/12/20 08:28:33;;;;;;;2.20;1.20;;;;;;;;;;5012677;28;20257;-28
2023/12/20 08:31:00;;;;;;;1.30;1.23;;;;;;;;;;4998496;28;20203;-29
2023/12/20 08:33:27;;;;;;;3.03;1.67;;;;;;;;;;5016312;28;20223;-25
2023/12/20 08:35:54;;;;;;;1.67;1.57;;;;;;;;;;5013576;28;20223;-29
2023/12/20 08:38:21;;;;;;;1.80;1.63;;;;;;;;;;5004656;28;20207;-27
2023/12/20 08:40:49;;;;;;;2.37;1.67;;;;;;;;;;5018670;28;20203;-27
2023/12/20 08:43:18;;;;;;;5.73;2.10;;;;;;;;;;5020713;28;20275;-27
2023/12/20 08:45:46;;;;;;;2.07;1.60;;;;;;;;;;5003373;28;20223;-26
2023/12/20 08:48:13;;;;;;;2.73;2.07;;;;;;;;;;5018867;28;20222;-26
2023/12/20 08:50:40;;;;;;;3.13;1.90;;;;;;;;;;5007187;28;20208;-27
2023/12/20 08:53:07;;;;;;;1.83;1.73;;;;;;;;;;5017843;28;20210;-27
2023/12/20 08:55:34;;;;;;;2.60;2.40;;;;;;;;;;5023288;28;20684;-26
2023/12/20 08:58:01;;;;;;;3.40;2.50;;;;;;;;;;5022769;28;20202;-28
2023/12/20 09:00:29;;;;;;;3.37;2.17;;;;;;;;;;4999243;28;20219;-27
2023/12/20 09:02:56;;;;;;;2.07;1.90;;;;;;;;;;5009855;28;20210;-27
2023/12/20 09:05:23;;;;;;;3.53;2.40;;;;;;;;;;5014981;28;20226;-27
2023/12/20 09:07:51;;;;;;;3.03;2.47;;;;;;;;;;5008334;28;20211;-27
2023/12/20 09:10:21;;;;;;;2.30;2.10;;;;;;;;;;5019760;28;20662;-27
2023/12/20 09:12:49;;;;;;;0.80;0.80;;;;;;;;;;5024080;28;20870;-29
2023/12/20 09:15:16;;;;;;;3.03;1.90;;;;;;;;;;5016098;28;20234;-26
2023/12/20 09:17:44;;;;;;;1.90;1.80;;;;;;;;;;5000723;28;20294;-27
2023/12/20 09:20:13;;;;;;;1.93;1.83;;;;;;;;;;5016356;28;20210;-28
2023/12/20 09:22:41;;;;;;;2.53;1.90;;;;;;;;;;5012707;28;20253;-27
2023/12/20 09:25:09;;;;;;;1.80;1.70;;;;;;;;;;5010261;28;20258;-27
2023/12/20 09:27:36;;;;;;;1.93;1.70;;;;;;;;;;5022422;28;20261;-26
2023/12/20 09:30:04;;;;;;;2.07;1.63;;;;;;;;;;5016529;28;20289;-26
2023/12/20 09:32:31;;;;;;;2.73;2.00;;;;;;;;;;5011095;28;20218;-27
2023/12/20 09:34:59;;;;;;;2.13;1.93;;;;;;;;;;5013065;28;20235;-30
2023/12/20 09:37:28;;;;;;;2.03;1.87;;;;;;;;;;5013961;28;20203;-26
2023/12/20 09:39:56;;;;;;;1.60;1.47;;;;;;;;;;5023212;28;20258;-31
2023/12/20 09:42:26;;;;;;;2.43;1.90;;;;;;;;;;5012380;28;20211;-26
2023/12/20 09:44:53;;;;;;;2.80;1.93;;;;;;;;;;5019273;28;20223;-28
2023/12/20 09:47:21;;;;;;;1.23;1.23;;;;;;;;;;5014742;28;20239;-26
2023/12/20 09:49:48;;;;;;;5.40;1.93;;;;;;;;;;5023726;28;20281;-26
2023/12/20 09:52:17;;;;;;;2.53;2.00;;;;;;;;;;5004789;28;20211;-26
2023/12/20 09:54:45;;;;;;;1.67;1.57;;;;;;;;;;5022443;28;20242;-25
2023/12/20 09:57:12;;;;;;;2.60;2.10;;;;;;;;;;5022989;28;20199;-29
2023/12/20 09:59:39;;;;;;;4.27;2.20;;;;;;;;;;5011123;28;20286;-26
2023/12/20 10:02:10;;;;;;;2.53;1.70;;;;;;;;;;5006628;28;20211;-28
2023/12/20 10:04:38;;;;;;;1.60;1.50;;;;;;;;;;5029629;28;20590;-28
2023/12/20 10:07:05;;;;;;;2.10;1.60;;;;;;;;;;5017778;28;20207;-25
2023/12/20 10:09:34;;;;;;;5.00;2.07;;;;;;;;;;5029336;28;20219;-27
2023/12/20 10:12:01;;;;;;;1.77;1.47;;;;;;;;;;5014165;28;20231;-26
2023/12/20 10:14:28;;;;;;;2.63;1.63;;;;;;;;;;5021818;28;20234;-27
2023/12/20 10:16:55;;;;;;;5.53;1.73;;;;;;;;;;5004619;28;20564;-26
2023/12/20 10:19:22;;;;;;;2.77;1.47;;;;;;;;;;5023302;28;20203;-27
2023/12/20 10:21:49;;;;;;;2.97;1.60;;;;;;;;;;5010304;28;20210;-27
2023/12/20 10:24:18;;;;;;;1.63;1.43;;;;;;;;;;5014143;28;20242;-28
2023/12/20 10:26:47;;;;;;;5.20;1.50;;;;;;;;;;5013955;28;20211;-25
2023/12/20 10:29:14;;;;;;;3.63;1.60;;;;;;;;;;5009957;28;20211;-28
2023/12/20 10:31:42;;;;;;;1.70;1.27;;;;;;;;;;5014155;28;20215;-27
2023/12/20 10:34:09;;;;;;;1.67;1.17;;;;;;;;;;5021323;28;20886;-24
2023/12/20 10:36:36;;;;;;;0.93;0.80;;;;;;;;;;5009247;28;21017;-26
2023/12/20 10:39:05;;;;;;;5.00;1.20;;;;;;;;;;5013652;28;20222;-28
2023/12/20 10:41:32;;;;;;;2.97;1.30;;;;;;;;;;5021125;28;20199;-26
2023/12/20 10:44:02;;;;;;;4.97;1.03;;;;;;;;;;5016261;28;20228;-28
2023/12/20 10:46:29;;;;;;;1.80;1.10;;;;;;;;;;5010108;28;20218;-26
2023/12/20 10:48:57;;;;;;;2.57;1.03;;;;;;;;;;5026764;28;20207;-27
2023/12/20 10:51:26;;;;;;;3.00;1.03;;;;;;;;;;5002366;28;20207;-25
2023/12/20 10:53:55;;;;;;;2.47;0.80;;;;;;;;;;5013165;28;20206;-27
2023/12/20 10:56:23;;;;;;;3.10;1.20;;;;;;;;;;5030443;28;20199;-26
2023/12/20 10:58:50;;;;;;;3.23;1.00;;;;;;;;;;5021634;28;20239;-29
2023/12/20 11:01:26;;;;;;;2.47;1.23;;;;;;;;;;5004631;28;20219;-25
2023/12/20 11:03:54;;;;;;;2.60;0.90;;;;;;;;;;5007386;28;20203;-27
2023/12/20 11:06:31;;;;;;;1.70;0.80;;;;;;;;;;5007205;28;20307;-27
2023/12/20 11:09:09;;;;;;;3.97;1.30;;;;;;;;;;5021114;28;20206;-27
2023/12/20 11:11:37;;;;;;;2.70;1.07;;;;;;;;;;5013304;28;20634;-27
2023/12/20 11:14:08;;;;;;;2.33;0.80;;;;;;;;;;5008394;28;22835;-27
2023/12/20 11:16:37;;;;;;;2.80;0.90;;;;;;;;;;5016492;28;20199;-27
2023/12/20 11:19:05;;;;;;;0.80;0.80;;;;;;;;;;5024763;28;20211;-28
2023/12/20 11:21:32;;;;;;;1.23;1.13;;;;;;;;;;5010805;28;20658;-27
2023/12/20 11:24:00;;;;;;;1.10;0.60;;;;;;;;;;5020641;28;20219;-27
2023/12/20 11:26:28;;;;;;;4.33;1.13;;;;;;;;;;5012434;28;20215;-25
2023/12/20 11:29:16;;;;;;;4.00;1.00;;;;;;;;;;5006348;28;20208;-26
2023/12/20 11:31:44;;;;;;;1.20;1.10;;;;;;;;;;4997165;28;20227;-26
2023/12/20 11:34:14;;;;;;;3.27;1.00;;;;;;;;;;5028237;28;20225;-27
2023/12/20 11:36:41;;;;;;;3.53;1.10;;;;;;;;;;5002674;28;20211;-26
2023/12/20 11:39:10;;;;;;;4.97;2.10;;;;;;;;;;5012872;28;20215;-27
2023/12/20 11:41:38;;;;;;;8.90;2.10;;;;;;;;;;5021023;28;20298;-26
2023/12/20 11:44:06;;;;;;;2.47;1.30;;;;;;;;;;5013187;28;20223;-28
2023/12/20 11:46:33;;;;;;;3.73;1.20;;;;;;;;;;5010424;28;20211;-26
2023/12/20 11:49:02;;;;;;;3.20;1.20;;;;;;;;;;5019333;28;20210;-28
2023/12/20 11:51:29;;;;;;;4.47;1.40;;;;;;;;;;5012439;28;20207;-26
2023/12/20 11:53:56;;;;;;;5.60;1.30;;;;;;;;;;5022921;28;20229;-26
2023/12/20 11:56:23;;;;;;;2.87;1.00;;;;;;;;;;5029993;28;20222;-26
2023/12/20 11:58:51;;;;;;;1.53;0.97;;;;;;;;;;5009276;28;20203;-27
2023/12/20 12:01:18;;;;;;;2.97;0.90;;;;;;;;;;5015713;28;20303;-27
2023/12/20 12:03:45;;;;;;;2.67;1.13;;;;;;;;;;5016244;28;20210;-27
2023/12/20 12:06:14;;;;;;;1.60;0.70;;;;;;;;;;5014630;28;20211;-26
2023/12/20 12:08:41;;;;;;;2.20;1.10;;;;;;;;;;5005589;28;20294;-27
2023/12/20 12:11:08;;;;;;;3.47;1.30;;;;;;;;;;5019399;28;20243;-26
2023/12/20 12:13:35;;;;;;;3.17;1.20;;;;;;;;;;5027638;28;20211;-27
2023/12/20 12:16:03;;;;;;;2.07;1.53;;;;;;;;;;5015869;28;20223;-27
2023/12/20 12:18:30;;;;;;;3.83;1.10;;;;;;;;;;5026468;28;20256;-28
2023/12/20 12:21:02;;;;;;;0.77;0.70;;;;;;;;;;5004511;28;20199;-26
2023/12/20 12:23:30;;;;;;;1.87;0.77;;;;;;;;;;5019324;28;20217;-26
2023/12/20 12:25:58;;;;;;;3.30;0.90;;;;;;;;;;5018115;28;20318;-28
2023/12/20 12:28:28;;;;;;;3.60;1.30;;;;;;;;;;5014240;28;20219;-27
2023/12/20 12:30:58;;;;;;;1.10;0.67;;;;;;;;;;5008063;28;20203;-26
2023/12/20 12:33:26;;;;;;;1.30;0.70;;;;;;;;;;5012045;28;20215;-28
2023/12/20 12:35:53;;;;;;;1.03;0.90;;;;;;;;;;5009943;28;20231;-27
2023/12/20 12:38:21;;;;;;;2.73;0.80;;;;;;;;;;5016125;28;20668;-28
2023/12/20 12:40:50;;;;;;;2.23;1.03;;;;;;;;;;5024513;28;20237;-28
2023/12/20 12:43:17;;;;;;;3.47;1.20;;;;;;;;;;5018833;28;20223;-26
2023/12/20 12:45:45;;;;;;;9.80;1.20;;;;;;;;;;5011708;28;20229;-25
2023/12/20 12:48:12;;;;;;;3.30;1.17;;;;;;;;;;5015940;28;20214;-25
2023/12/20 12:50:39;;;;;;;3.43;1.13;;;;;;;;;;5007091;28;20210;-27
2023/12/20 12:53:06;;;;;;;5.17;1.00;;;;;;;;;;5021167;28;20206;-26
2023/12/20 12:55:33;;;;;;;2.57;1.70;;;;;;;;;;5020958;28;20237;-26
2023/12/20 12:58:01;;;;;;;6.17;1.17;;;;;;;;;;5017294;28;20209;-26
2023/12/20 13:00:28;;;;;;;3.13;1.07;;;;;;;;;;5002621;28;20231;-27
2023/12/20 13:02:56;;;;;;;2.87;1.20;;;;;;;;;;5010742;28;20203;-27
2023/12/20 13:05:23;;;;;;;1.53;1.00;;;;;;;;;;5003894;28;20233;-24
2023/12/20 13:07:50;;;;;;;4.70;1.77;;;;;;;;;;5021062;28;20206;-27
2023/12/20 13:10:17;;;;;;;7.40;3.13;;;;;;;;;;5024033;28;20266;-26
2023/12/20 13:12:45;;;;;;;9.33;7.40;;;;;;;;;;5022856;28;20209;-28
2023/12/20 13:15:13;;;;;;;2.77;1.00;;;;;;;;;;5008275;28;20226;-28
2023/12/20 13:17:41;;;;;;;4.03;1.73;;;;;;;;;;5009164;28;20209;-28
2023/12/20 13:20:08;;;;;;;1.50;1.37;;;;;;;;;;5013228;28;20688;-26
2023/12/20 13:22:35;;;;;;;2.57;1.03;;;;;;;;;;5012819;28;20242;-26
2023/12/20 13:25:03;;;;;;;2.77;1.30;;;;;;;;;;5019350;28;20254;-27
2023/12/20 13:27:30;;;;;;;2.97;1.40;;;;;;;;;;5025402;28;20214;-25
2023/12/20 13:29:57;;;;;;;3.47;1.17;;;;;;;;;;5020225;28;20202;-28
2023/12/20 13:32:25;;;;;;;0.80;0.80;;;;;;;;;;5010582;28;20218;-26
2023/12/20 13:34:52;;;;;;;1.67;1.20;;;;;;;;;;5034240;28;20222;-26
2023/12/20 13:37:20;;;;;;;2.43;1.60;;;;;;;;;;5009182;28;20207;-27
2023/12/20 13:39:47;;;;;;;4.20;1.10;;;;;;;;;;5007211;28;20203;-26
2023/12/20 13:42:15;;;;;;;1.60;1.33;;;;;;;;;;5023397;28;20204;-26
2023/12/20 13:44:42;;;;;;;2.17;1.50;;;;;;;;;;5019737;28;20274;-28
2023/12/20 13:47:09;;;;;;;4.03;1.30;;;;;;;;;;5025656;28;20238;-28
2023/12/20 13:49:37;;;;;;;1.97;1.00;;;;;;;;;;5025905;28;20221;-26
2023/12/20 13:52:05;;;;;;;2.53;1.37;;;;;;;;;;5009072;28;20203;-25
2023/12/20 13:54:32;;;;;;;2.97;1.10;;;;;;;;;;5023356;28;20231;-26
2023/12/20 13:56:59;;;;;;;4.00;1.60;;;;;;;;;;5021432;28;20223;-28
2023/12/20 13:59:26;;;;;;;1.27;1.00;;;;;;;;;;5020845;28;20211;-26
2023/12/20 14:01:53;;;;;;;3.80;1.30;;;;;;;;;;5001709;28;20199;-25
2023/12/20 14:04:21;;;;;;;5.83;1.60;;;;;;;;;;5022167;28;20233;-26
2023/12/20 14:06:49;;;;;;;3.07;1.37;;;;;;;;;;5010977;28;20207;-26
2023/12/20 14:09:17;;;;;;;3.10;1.00;;;;;;;;;;5013529;28;20207;-26
2023/12/20 14:11:44;;;;;;;3.67;1.27;;;;;;;;;;5029824;28;20290;-28
2023/12/20 14:14:11;;;;;;;3.17;1.13;;;;;;;;;;5001884;28;20224;-24
2023/12/20 14:16:38;;;;;;;2.40;1.23;;;;;;;;;;5011666;28;20238;-25
2023/12/20 14:19:07;;;;;;;3.73;1.53;;;;;;;;;;5013643;28;20203;-26
2023/12/20 14:21:34;;;;;;;3.90;1.17;;;;;;;;;;5003169;28;20255;-27
2023/12/20 14:24:03;;;;;;;3.00;1.20;;;;;;;;;;5022779;28;20226;-26
2023/12/20 14:26:31;;;;;;;4.30;1.57;;;;;;;;;;5030718;28;20210;-26
2023/12/20 14:28:58;;;;;;;4.23;1.37;;;;;;;;;;5017467;28;20242;-27
2023/12/20 14:31:25;;;;;;;2.10;1.30;;;;;;;;;;5011611;28;20215;-26
2023/12/20 14:33:53;;;;;;;1.47;1.30;;;;;;;;;;5025822;28;20542;-27
2023/12/20 14:36:20;;;;;;;4.47;1.30;;;;;;;;;;5005568;28;20231;-24
2023/12/20 14:38:49;;;;;;;1.93;1.20;;;;;;;;;;5013009;28;20229;-25
2023/12/20 14:41:18;;;;;;;3.70;1.50;;;;;;;;;;5021865;28;20298;-27
2023/12/20 14:43:46;;;;;;;5.97;1.40;;;;;;;;;;5003034;28;20211;-26
2023/12/20 14:46:27;;;;;;;5.03;1.50;;;;;;;;;;5021834;28;20239;-27